sensor_id;sensor_type;location;lat;lon;timestamp;temperature;humidity
18392;DHT22;9322;50.932;5.318;2023-07-29T00:01:51;19.70;1.40
18392;DHT22;9322;50.932;5.318;2023-07-29T00:04:19;19.80;1.40
18392;DHT22;9322;50.932;5.318;2023-07-29T00:06:45;19.90;1.40
18392;DHT22;9322;50.932;5.318;2023-07-29T00:09:11;19.80;1.40
18392;DHT22;9322;50.932;5.318;2023-07-29T00:11:38;19.70;1.40
18392;DHT22;9322;50.932;5.318;2023-07-29T00:14:03;19.80;1.40
18392;DHT22;9322;50.932;5.318;2023-07-29T00:16:29;19.80;1.40
18392;DHT22;9322;50.932;5.318;2023-07-29T00:18:55;19.70;1.40
18392;DHT22;9322;50.932;5.318;2023-07-29T00:21:21;19.70;1.40
18392;DHT22;9322;50.932;5.318;2023-07-29T00:23:46;19.70;1.40
18392;DHT22;9322;50.932;5.318;2023-07-29T00:26:12;19.80;1.40
18392;DHT22;9322;50.932;5.318;2023-07-29T00:28:38;19.60;1.40
18392;DHT22;9322;50.932;5.318;2023-07-29T00:31:04;19.60;1.40
18392;DHT22;9322;50.932;5.318;2023-07-29T00:33:29;19.70;1.40
18392;DHT22;9322;50.932;5.318;2023-07-29T00:35:55;19.80;1.40
18392;DHT22;9322;50.932;5.318;2023-07-29T00:38:21;19.80;1.40
18392;DHT22;9322;50.932;5.318;2023-07-29T00:40:46;19.90;1.40
18392;DHT22;9322;50.932;5.318;2023-07-29T00:43:12;19.90;1.40
18392;DHT22;9322;50.932;5.318;2023-07-29T00:45:38;19.90;1.40
18392;DHT22;9322;50.932;5.318;2023-07-29T00:48:04;19.90;1.40
18392;DHT22;9322;50.932;5.318;2023-07-29T00:50:32;19.90;1.40
18392;DHT22;9322;50.932;5.318;2023-07-29T00:52:58;19.90;1.40
18392;DHT22;9322;50.932;5.318;2023-07-29T00:55:24;19.80;1.40
18392;DHT22;9322;50.932;5.318;2023-07-29T00:57:51;19.80;1.40
18392;DHT22;9322;50.932;5.318;2023-07-29T01:00:20;19.70;1.40
18392;DHT22;9322;50.932;5.318;2023-07-29T01:02:45;19.80;1.40
18392;DHT22;9322;50.932;5.318;2023-07-29T01:05:13;19.70;1.40
18392;DHT22;9322;50.932;5.318;2023-07-29T01:07:54;19.70;1.40
18392;DHT22;9322;50.932;5.318;2023-07-29T01:13:24;19.60;1.40
18392;DHT22;9322;50.932;5.318;2023-07-29T01:15:54;19.50;1.40
18392;DHT22;9322;50.932;5.318;2023-07-29T01:18:31;19.60;1.40
18392;DHT22;9322;50.932;5.318;2023-07-29T01:21:03;19.60;1.40
18392;DHT22;9322;50.932;5.318;2023-07-29T01:23:34;19.60;1.40
18392;DHT22;9322;50.932;5.318;2023-07-29T01:26:00;19.70;1.40
18392;DHT22;9322;50.932;5.318;2023-07-29T01:28:26;19.60;1.40
18392;DHT22;9322;50.932;5.318;2023-07-29T01:31:01;19.60;1.40
18392;DHT22;9322;50.932;5.318;2023-07-29T01:33:34;19.60;1.40
18392;DHT22;9322;50.932;5.318;2023-07-29T01:36:10;19.60;1.40
18392;DHT22;9322;50.932;5.318;2023-07-29T01:38:38;19.60;1.40
18392;DHT22;9322;50.932;5.318;2023-07-29T01:41:08;19.60;1.40
18392;DHT22;9322;50.932;5.318;2023-07-29T01:43:34;19.50;1.40
18392;DHT22;9322;50.932;5.318;2023-07-29T01:46:07;19.50;1.40
18392;DHT22;9322;50.932;5.318;2023-07-29T01:48:32;19.70;1.40
18392;DHT22;9322;50.932;5.318;2023-07-29T01:50:58;19.60;1.40
18392;DHT22;9322;50.932;5.318;2023-07-29T01:53:24;19.50;1.40
18392;DHT22;9322;50.932;5.318;2023-07-29T01:55:49;19.60;1.40
18392;DHT22;9322;50.932;5.318;2023-07-29T01:58:15;19.50;1.40
18392;DHT22;9322;50.932;5.318;2023-07-29T02:00:41;19.40;1.40
18392;DHT22;9322;50.932;5.318;2023-07-29T02:03:06;19.30;1.40
18392;DHT22;9322;50.932;5.318;2023-07-29T02:05:32;19.20;1.40
18392;DHT22;9322;50.932;5.318;2023-07-29T02:07:58;19.20;1.40
18392;DHT22;9322;50.932;5.318;2023-07-29T02:10:24;19.20;1.40
18392;DHT22;9322;50.932;5.318;2023-07-29T02:12:49;19.10;1.40
18392;DHT22;9322;50.932;5.318;2023-07-29T02:15:15;19.00;1.40
18392;DHT22;9322;50.932;5.318;2023-07-29T02:17:42;19.00;1.40
18392;DHT22;9322;50.932;5.318;2023-07-29T02:20:08;18.90;1.40
18392;DHT22;9322;50.932;5.318;2023-07-29T02:22:34;19.00;1.40
18392;DHT22;9322;50.932;5.318;2023-07-29T02:24:59;18.90;1.40
18392;DHT22;9322;50.932;5.318;2023-07-29T02:27:26;18.80;1.40
18392;DHT22;9322;50.932;5.318;2023-07-29T02:29:55;18.70;1.40
18392;DHT22;9322;50.932;5.318;2023-07-29T02:32:21;18.80;1.40
18392;DHT22;9322;50.932;5.318;2023-07-29T02:34:47;18.70;1.40
18392;DHT22;9322;50.932;5.318;2023-07-29T02:37:12;18.60;1.40
18392;DHT22;9322;50.932;5.318;2023-07-29T02:39:38;18.50;1.40
18392;DHT22;9322;50.932;5.318;2023-07-29T02:42:04;18.50;1.40
18392;DHT22;9322;50.932;5.318;2023-07-29T02:44:29;18.50;1.40
18392;DHT22;9322;50.932;5.318;2023-07-29T02:46:55;18.50;1.40
18392;DHT22;9322;50.932;5.318;2023-07-29T02:49:22;18.40;1.40
18392;DHT22;9322;50.932;5.318;2023-07-29T02:51:48;18.30;1.40
18392;DHT22;9322;50.932;5.318;2023-07-29T02:54:15;18.30;1.40
18392;DHT22;9322;50.932;5.318;2023-07-29T02:56:41;18.30;1.40
18392;DHT22;9322;50.932;5.318;2023-07-29T02:59:06;18.30;1.40
18392;DHT22;9322;50.932;5.318;2023-07-29T03:01:32;18.20;1.40
18392;DHT22;9322;50.932;5.318;2023-07-29T03:03:58;18.20;1.40
18392;DHT22;9322;50.932;5.318;2023-07-29T03:06:24;18.10;1.40
18392;DHT22;9322;50.932;5.318;2023-07-29T03:08:49;18.10;1.40
18392;DHT22;9322;50.932;5.318;2023-07-29T03:11:16;18.00;1.40
18392;DHT22;9322;50.932;5.318;2023-07-29T03:13:42;18.00;1.40
18392;DHT22;9322;50.932;5.318;2023-07-29T03:16:11;17.90;1.40
18392;DHT22;9322;50.932;5.318;2023-07-29T03:18:36;17.90;1.40
18392;DHT22;9322;50.932;5.318;2023-07-29T03:21:03;17.80;1.40
18392;DHT22;9322;50.932;5.318;2023-07-29T03:23:30;17.80;1.40
18392;DHT22;9322;50.932;5.318;2023-07-29T03:25:56;17.70;1.40
18392;DHT22;9322;50.932;5.318;2023-07-29T03:28:29;17.70;1.40
18392;DHT22;9322;50.932;5.318;2023-07-29T03:30:56;17.70;1.40
18392;DHT22;9322;50.932;5.318;2023-07-29T03:33:24;17.70;1.40
18392;DHT22;9322;50.932;5.318;2023-07-29T03:35:50;17.70;1.40
18392;DHT22;9322;50.932;5.318;2023-07-29T03:38:15;17.60;1.40
18392;DHT22;9322;50.932;5.318;2023-07-29T03:40:41;17.60;1.40
18392;DHT22;9322;50.932;5.318;2023-07-29T03:43:08;17.50;1.40
18392;DHT22;9322;50.932;5.318;2023-07-29T03:45:34;17.60;1.40
18392;DHT22;9322;50.932;5.318;2023-07-29T03:48:00;17.60;1.40
18392;DHT22;9322;50.932;5.318;2023-07-29T03:50:26;17.60;1.40
18392;DHT22;9322;50.932;5.318;2023-07-29T03:52:52;17.80;1.40
18392;DHT22;9322;50.932;5.318;2023-07-29T03:55:18;17.70;1.40
18392;DHT22;9322;50.932;5.318;2023-07-29T03:57:44;17.60;1.40
18392;DHT22;9322;50.932;5.318;2023-07-29T04:00:10;17.60;1.40
18392;DHT22;9322;50.932;5.318;2023-07-29T04:02:36;17.70;1.40
18392;DHT22;9322;50.932;5.318;2023-07-29T04:05:05;17.70;1.40
18392;DHT22;9322;50.932;5.318;2023-07-29T04:07:34;17.50;1.40
18392;DHT22;9322;50.932;5.318;2023-07-29T04:10:00;17.40;1.40
18392;DHT22;9322;50.932;5.318;2023-07-29T04:12:26;17.40;1.40
18392;DHT22;9322;50.932;5.318;2023-07-29T04:14:52;17.40;1.40
18392;DHT22;9322;50.932;5.318;2023-07-29T04:17:18;17.40;1.40
18392;DHT22;9322;50.932;5.318;2023-07-29T04:19:43;17.40;1.40
18392;DHT22;9322;50.932;5.318;2023-07-29T04:22:09;17.40;1.40
18392;DHT22;9322;50.932;5.318;2023-07-29T04:24:35;17.40;1.40
18392;DHT22;9322;50.932;5.318;2023-07-29T04:27:00;17.40;1.40
18392;DHT22;9322;50.932;5.318;2023-07-29T04:29:26;17.40;1.40
18392;DHT22;9322;50.932;5.318;2023-07-29T04:31:52;17.50;1.40
18392;DHT22;9322;50.932;5.318;2023-07-29T04:34:19;17.50;1.40
18392;DHT22;9322;50.932;5.318;2023-07-29T04:36:48;17.50;1.40
18392;DHT22;9322;50.932;5.318;2023-07-29T04:39:14;17.50;1.40
18392;DHT22;9322;50.932;5.318;2023-07-29T04:41:40;17.60;1.40
18392;DHT22;9322;50.932;5.318;2023-07-29T04:44:06;17.60;1.40
18392;DHT22;9322;50.932;5.318;2023-07-29T04:46:32;17.60;1.40
18392;DHT22;9322;50.932;5.318;2023-07-29T04:48:57;17.60;1.40
18392;DHT22;9322;50.932;5.318;2023-07-29T04:51:24;17.60;1.40
18392;DHT22;9322;50.932;5.318;2023-07-29T04:53:50;17.60;1.40
18392;DHT22;9322;50.932;5.318;2023-07-29T04:56:15;17.60;1.40
18392;DHT22;9322;50.932;5.318;2023-07-29T04:58:41;17.60;1.40
18392;DHT22;9322;50.932;5.318;2023-07-29T05:01:06;17.50;1.40
18392;DHT22;9322;50.932;5.318;2023-07-29T05:03:32;17.50;1.40
18392;DHT22;9322;50.932;5.318;2023-07-29T05:05:58;17.50;1.40
18392;DHT22;9322;50.932;5.318;2023-07-29T05:08:26;17.50;1.40
18392;DHT22;9322;50.932;5.318;2023-07-29T05:10:52;17.50;1.40
18392;DHT22;9322;50.932;5.318;2023-07-29T05:13:18;17.60;1.40
18392;DHT22;9322;50.932;5.318;2023-07-29T05:15:44;17.60;1.40
18392;DHT22;9322;50.932;5.318;2023-07-29T05:18:10;17.60;1.40
18392;DHT22;9322;50.932;5.318;2023-07-29T05:20:36;17.70;1.40
18392;DHT22;9322;50.932;5.318;2023-07-29T05:23:02;17.70;1.40
18392;DHT22;9322;50.932;5.318;2023-07-29T05:25:28;17.70;1.40
18392;DHT22;9322;50.932;5.318;2023-07-29T05:27:54;17.80;1.40
18392;DHT22;9322;50.932;5.318;2023-07-29T05:30:20;18.00;1.40
18392;DHT22;9322;50.932;5.318;2023-07-29T05:32:45;18.30;1.40
18392;DHT22;9322;50.932;5.318;2023-07-29T05:35:11;18.80;1.40
18392;DHT22;9322;50.932;5.318;2023-07-29T05:37:40;18.90;1.40
18392;DHT22;9322;50.932;5.318;2023-07-29T05:40:06;18.90;1.40
18392;DHT22;9322;50.932;5.318;2023-07-29T05:42:33;18.90;1.40
18392;DHT22;9322;50.932;5.318;2023-07-29T05:44:59;18.80;1.40
18392;DHT22;9322;50.932;5.318;2023-07-29T05:47:24;18.80;1.40
18392;DHT22;9322;50.932;5.318;2023-07-29T05:49:50;18.80;1.40
18392;DHT22;9322;50.932;5.318;2023-07-29T05:52:16;18.90;1.40
18392;DHT22;9322;50.932;5.318;2023-07-29T05:54:41;18.90;1.40
18392;DHT22;9322;50.932;5.318;2023-07-29T05:57:09;18.80;1.40
18392;DHT22;9322;50.932;5.318;2023-07-29T05:59:35;18.90;1.40
18392;DHT22;9322;50.932;5.318;2023-07-29T06:02:00;18.70;1.40
18392;DHT22;9322;50.932;5.318;2023-07-29T06:04:26;18.90;1.40
18392;DHT22;9322;50.932;5.318;2023-07-29T06:06:52;19.20;1.40
18392;DHT22;9322;50.932;5.318;2023-07-29T06:09:18;19.50;1.40
18392;DHT22;9322;50.932;5.318;2023-07-29T06:11:43;19.80;1.40
18392;DHT22;9322;50.932;5.318;2023-07-29T06:14:09;20.00;1.40
18392;DHT22;9322;50.932;5.318;2023-07-29T06:16:35;19.80;1.40
18392;DHT22;9322;50.932;5.318;2023-07-29T06:19:00;19.70;1.40
18392;DHT22;9322;50.932;5.318;2023-07-29T06:21:26;20.20;1.40
18392;DHT22;9322;50.932;5.318;2023-07-29T06:23:52;21.50;1.40
18392;DHT22;9322;50.932;5.318;2023-07-29T06:26:18;21.50;1.40
18392;DHT22;9322;50.932;5.318;2023-07-29T06:28:43;21.60;1.40
18392;DHT22;9322;50.932;5.318;2023-07-29T06:31:09;21.40;1.40
18392;DHT22;9322;50.932;5.318;2023-07-29T06:33:35;21.60;1.40
18392;DHT22;9322;50.932;5.318;2023-07-29T06:36:00;22.10;1.40
18392;DHT22;9322;50.932;5.318;2023-07-29T06:38:26;22.20;1.40
18392;DHT22;9322;50.932;5.318;2023-07-29T06:40:51;22.50;1.40
18392;DHT22;9322;50.932;5.318;2023-07-29T06:43:18;23.30;1.40
18392;DHT22;9322;50.932;5.318;2023-07-29T06:45:43;23.70;1.40
18392;DHT22;9322;50.932;5.318;2023-07-29T06:48:09;24.00;1.40
18392;DHT22;9322;50.932;5.318;2023-07-29T06:50:35;24.80;1.40
18392;DHT22;9322;50.932;5.318;2023-07-29T06:53:00;25.20;1.40
18392;DHT22;9322;50.932;5.318;2023-07-29T06:55:26;25.40;1.40
18392;DHT22;9322;50.932;5.318;2023-07-29T06:57:51;26.50;1.40
18392;DHT22;9322;50.932;5.318;2023-07-29T07:00:17;26.80;1.40
18392;DHT22;9322;50.932;5.318;2023-07-29T07:02:43;26.00;1.40
18392;DHT22;9322;50.932;5.318;2023-07-29T07:05:09;27.30;1.40
18392;DHT22;9322;50.932;5.318;2023-07-29T07:07:34;26.50;1.40
18392;DHT22;9322;50.932;5.318;2023-07-29T07:10:00;27.30;1.40
18392;DHT22;9322;50.932;5.318;2023-07-29T07:12:26;27.30;1.40
18392;DHT22;9322;50.932;5.318;2023-07-29T07:14:51;27.60;1.40
18392;DHT22;9322;50.932;5.318;2023-07-29T07:17:17;26.60;1.40
18392;DHT22;9322;50.932;5.318;2023-07-29T07:19:43;25.10;1.40
18392;DHT22;9322;50.932;5.318;2023-07-29T07:22:09;24.90;1.40
18392;DHT22;9322;50.932;5.318;2023-07-29T07:24:34;24.60;1.40
18392;DHT22;9322;50.932;5.318;2023-07-29T07:27:00;23.80;1.40
18392;DHT22;9322;50.932;5.318;2023-07-29T07:29:26;23.20;1.40
18392;DHT22;9322;50.932;5.318;2023-07-29T07:31:53;23.20;1.40
18392;DHT22;9322;50.932;5.318;2023-07-29T07:34:20;22.50;1.40
18392;DHT22;9322;50.932;5.318;2023-07-29T07:36:46;22.40;1.40
18392;DHT22;9322;50.932;5.318;2023-07-29T07:39:12;22.60;1.40
18392;DHT22;9322;50.932;5.318;2023-07-29T07:41:38;23.50;1.40
18392;DHT22;9322;50.932;5.318;2023-07-29T07:44:04;24.30;1.40
18392;DHT22;9322;50.932;5.318;2023-07-29T07:46:30;24.70;1.40
18392;DHT22;9322;50.932;5.318;2023-07-29T07:48:55;24.60;1.40
18392;DHT22;9322;50.932;5.318;2023-07-29T07:51:21;24.30;1.40
18392;DHT22;9322;50.932;5.318;2023-07-29T07:53:47;23.40;1.40
18392;DHT22;9322;50.932;5.318;2023-07-29T07:56:12;22.90;1.40
18392;DHT22;9322;50.932;5.318;2023-07-29T07:58:38;22.50;1.40
18392;DHT22;9322;50.932;5.318;2023-07-29T08:01:08;22.60;1.40
18392;DHT22;9322;50.932;5.318;2023-07-29T08:03:35;22.20;1.40
18392;DHT22;9322;50.932;5.318;2023-07-29T08:06:01;22.50;1.40
18392;DHT22;9322;50.932;5.318;2023-07-29T08:08:28;23.10;1.40
18392;DHT22;9322;50.932;5.318;2023-07-29T08:10:54;23.90;1.40
18392;DHT22;9322;50.932;5.318;2023-07-29T08:13:21;23.90;1.40
18392;DHT22;9322;50.932;5.318;2023-07-29T08:15:48;23.90;1.40
18392;DHT22;9322;50.932;5.318;2023-07-29T08:18:14;24.00;1.40
18392;DHT22;9322;50.932;5.318;2023-07-29T08:20:41;24.00;1.40
18392;DHT22;9322;50.932;5.318;2023-07-29T08:23:06;23.80;1.40
18392;DHT22;9322;50.932;5.318;2023-07-29T08:25:32;23.60;1.40
18392;DHT22;9322;50.932;5.318;2023-07-29T08:27:57;23.10;1.40
18392;DHT22;9322;50.932;5.318;2023-07-29T08:30:23;22.70;1.40
18392;DHT22;9322;50.932;5.318;2023-07-29T08:32:48;22.40;1.40
18392;DHT22;9322;50.932;5.318;2023-07-29T08:35:14;22.30;1.40
18392;DHT22;9322;50.932;5.318;2023-07-29T08:37:40;22.20;1.40
18392;DHT22;9322;50.932;5.318;2023-07-29T08:40:06;22.00;1.40
18392;DHT22;9322;50.932;5.318;2023-07-29T08:42:32;22.40;1.40
18392;DHT22;9322;50.932;5.318;2023-07-29T08:45:07;23.70;1.40
18392;DHT22;9322;50.932;5.318;2023-07-29T08:47:36;24.60;1.40
18392;DHT22;9322;50.932;5.318;2023-07-29T08:50:03;25.10;1.40
18392;DHT22;9322;50.932;5.318;2023-07-29T08:52:29;26.10;1.40
18392;DHT22;9322;50.932;5.318;2023-07-29T08:54:55;26.20;1.40
18392;DHT22;9322;50.932;5.318;2023-07-29T08:57:22;26.70;1.40
18392;DHT22;9322;50.932;5.318;2023-07-29T08:59:48;26.80;1.40
18392;DHT22;9322;50.932;5.318;2023-07-29T09:02:14;28.00;1.40
18392;DHT22;9322;50.932;5.318;2023-07-29T09:04:40;29.70;1.40
18392;DHT22;9322;50.932;5.318;2023-07-29T09:07:05;29.30;1.40
18392;DHT22;9322;50.932;5.318;2023-07-29T09:09:32;29.40;1.40
18392;DHT22;9322;50.932;5.318;2023-07-29T09:11:58;30.50;1.40
18392;DHT22;9322;50.932;5.318;2023-07-29T09:14:24;31.20;1.40
18392;DHT22;9322;50.932;5.318;2023-07-29T09:16:50;30.50;1.40
18392;DHT22;9322;50.932;5.318;2023-07-29T09:19:16;30.30;1.40
18392;DHT22;9322;50.932;5.318;2023-07-29T09:21:42;30.00;1.40
18392;DHT22;9322;50.932;5.318;2023-07-29T09:24:12;30.40;1.40
18392;DHT22;9322;50.932;5.318;2023-07-29T09:26:38;30.30;1.40
18392;DHT22;9322;50.932;5.318;2023-07-29T09:29:06;29.70;1.40
18392;DHT22;9322;50.932;5.318;2023-07-29T09:31:31;27.40;1.40
18392;DHT22;9322;50.932;5.318;2023-07-29T09:34:03;26.80;1.40
18392;DHT22;9322;50.932;5.318;2023-07-29T09:36:31;26.50;1.40
18392;DHT22;9322;50.932;5.318;2023-07-29T09:38:57;26.40;1.40
18392;DHT22;9322;50.932;5.318;2023-07-29T09:41:28;26.10;1.40
18392;DHT22;9322;50.932;5.318;2023-07-29T09:46:24;25.70;1.40
18392;DHT22;9322;50.932;5.318;2023-07-29T09:48:54;25.70;1.40
18392;DHT22;9322;50.932;5.318;2023-07-29T09:51:23;25.90;1.40
18392;DHT22;9322;50.932;5.318;2023-07-29T09:53:50;26.80;1.40
18392;DHT22;9322;50.932;5.318;2023-07-29T09:56:17;28.40;1.40
18392;DHT22;9322;50.932;5.318;2023-07-29T09:58:44;29.80;1.40
18392;DHT22;9322;50.932;5.318;2023-07-29T10:01:11;29.30;1.40
18392;DHT22;9322;50.932;5.318;2023-07-29T10:03:37;30.20;1.40
18392;DHT22;9322;50.932;5.318;2023-07-29T10:06:05;31.90;1.40
18392;DHT22;9322;50.932;5.318;2023-07-29T10:08:31;31.60;1.40
18392;DHT22;9322;50.932;5.318;2023-07-29T10:11:01;31.30;1.40
18392;DHT22;9322;50.932;5.318;2023-07-29T10:13:28;30.20;1.40
18392;DHT22;9322;50.932;5.318;2023-07-29T10:15:54;28.70;1.40
18392;DHT22;9322;50.932;5.318;2023-07-29T10:18:22;27.10;1.40
18392;DHT22;9322;50.932;5.318;2023-07-29T10:20:51;26.50;1.40
18392;DHT22;9322;50.932;5.318;2023-07-29T10:23:18;27.20;1.40
18392;DHT22;9322;50.932;5.318;2023-07-29T10:25:47;27.80;1.40
18392;DHT22;9322;50.932;5.318;2023-07-29T10:28:15;27.60;1.40
18392;DHT22;9322;50.932;5.318;2023-07-29T10:30:43;26.90;1.40
18392;DHT22;9322;50.932;5.318;2023-07-29T10:33:09;27.30;1.40
18392;DHT22;9322;50.932;5.318;2023-07-29T10:35:36;27.80;1.40
18392;DHT22;9322;50.932;5.318;2023-07-29T10:38:03;28.70;1.40
18392;DHT22;9322;50.932;5.318;2023-07-29T10:40:47;29.00;1.40
18392;DHT22;9322;50.932;5.318;2023-07-29T10:45:57;28.60;1.40
18392;DHT22;9322;50.932;5.318;2023-07-29T10:53:52;26.80;1.40
18392;DHT22;9322;50.932;5.318;2023-07-29T10:56:27;25.90;1.40
18392;DHT22;9322;50.932;5.318;2023-07-29T10:58:55;25.00;1.40
18392;DHT22;9322;50.932;5.318;2023-07-29T11:01:31;24.80;1.40
18392;DHT22;9322;50.932;5.318;2023-07-29T11:15:27;23.70;1.40
18392;DHT22;9322;50.932;5.318;2023-07-29T11:20:28;23.60;1.40
18392;DHT22;9322;50.932;5.318;2023-07-29T11:22:55;23.40;1.40
18392;DHT22;9322;50.932;5.318;2023-07-29T11:25:23;23.40;1.40
18392;DHT22;9322;50.932;5.318;2023-07-29T11:27:51;23.30;1.40
18392;DHT22;9322;50.932;5.318;2023-07-29T11:30:17;23.10;1.40
18392;DHT22;9322;50.932;5.318;2023-07-29T11:32:44;22.20;1.40
18392;DHT22;9322;50.932;5.318;2023-07-29T11:35:15;21.80;1.40
18392;DHT22;9322;50.932;5.318;2023-07-29T11:37:43;21.70;1.40
18392;DHT22;9322;50.932;5.318;2023-07-29T11:40:09;21.80;1.40
18392;DHT22;9322;50.932;5.318;2023-07-29T11:42:38;21.80;1.40
18392;DHT22;9322;50.932;5.318;2023-07-29T11:45:04;21.80;1.40
18392;DHT22;9322;50.932;5.318;2023-07-29T11:47:32;21.80;1.40
18392;DHT22;9322;50.932;5.318;2023-07-29T11:50:02;21.80;1.40
18392;DHT22;9322;50.932;5.318;2023-07-29T11:52:28;22.00;1.40
18392;DHT22;9322;50.932;5.318;2023-07-29T11:54:54;22.10;1.40
18392;DHT22;9322;50.932;5.318;2023-07-29T11:57:20;22.10;1.40
18392;DHT22;9322;50.932;5.318;2023-07-29T11:59:46;22.10;1.40
18392;DHT22;9322;50.932;5.318;2023-07-29T12:02:20;22.20;1.40
18392;DHT22;9322;50.932;5.318;2023-07-29T12:04:47;22.20;1.40
18392;DHT22;9322;50.932;5.318;2023-07-29T12:07:14;22.40;1.40
18392;DHT22;9322;50.932;5.318;2023-07-29T12:09:41;22.40;1.40
18392;DHT22;9322;50.932;5.318;2023-07-29T12:12:08;22.30;1.40
18392;DHT22;9322;50.932;5.318;2023-07-29T12:14:34;22.30;1.40
18392;DHT22;9322;50.932;5.318;2023-07-29T12:17:04;22.40;1.40
18392;DHT22;9322;50.932;5.318;2023-07-29T12:19:35;22.40;1.40
18392;DHT22;9322;50.932;5.318;2023-07-29T12:22:01;22.60;1.40
18392;DHT22;9322;50.932;5.318;2023-07-29T12:24:29;22.70;1.40
18392;DHT22;9322;50.932;5.318;2023-07-29T12:26:55;22.80;1.40
18392;DHT22;9322;50.932;5.318;2023-07-29T12:29:21;22.70;1.40
18392;DHT22;9322;50.932;5.318;2023-07-29T12:31:47;22.40;1.40
18392;DHT22;9322;50.932;5.318;2023-07-29T12:34:20;22.10;1.40
18392;DHT22;9322;50.932;5.318;2023-07-29T12:36:50;21.50;1.40
18392;DHT22;9322;50.932;5.318;2023-07-29T12:39:30;21.20;1.40
18392;DHT22;9322;50.932;5.318;2023-07-29T12:41:57;21.10;1.40
18392;DHT22;9322;50.932;5.318;2023-07-29T12:44:33;21.00;1.40
18392;DHT22;9322;50.932;5.318;2023-07-29T12:47:03;21.10;1.40
18392;DHT22;9322;50.932;5.318;2023-07-29T12:49:29;21.30;1.40
18392;DHT22;9322;50.932;5.318;2023-07-29T12:51:56;21.50;1.40
18392;DHT22;9322;50.932;5.318;2023-07-29T12:54:22;21.90;1.40
18392;DHT22;9322;50.932;5.318;2023-07-29T12:56:48;22.00;1.40
18392;DHT22;9322;50.932;5.318;2023-07-29T12:59:14;22.50;1.40
18392;DHT22;9322;50.932;5.318;2023-07-29T13:01:40;22.80;1.40
18392;DHT22;9322;50.932;5.318;2023-07-29T13:04:05;23.00;1.40
18392;DHT22;9322;50.932;5.318;2023-07-29T13:06:31;23.20;1.40
18392;DHT22;9322;50.932;5.318;2023-07-29T13:08:57;23.50;1.40
18392;DHT22;9322;50.932;5.318;2023-07-29T13:11:22;23.50;1.40
18392;DHT22;9322;50.932;5.318;2023-07-29T13:13:48;23.50;1.40
18392;DHT22;9322;50.932;5.318;2023-07-29T13:16:13;23.80;1.40
18392;DHT22;9322;50.932;5.318;2023-07-29T13:18:39;24.10;1.40
18392;DHT22;9322;50.932;5.318;2023-07-29T13:21:06;24.50;1.40
18392;DHT22;9322;50.932;5.318;2023-07-29T13:23:32;24.70;1.40
18392;DHT22;9322;50.932;5.318;2023-07-29T13:25:58;24.70;1.40
18392;DHT22;9322;50.932;5.318;2023-07-29T13:28:24;24.50;1.40
18392;DHT22;9322;50.932;5.318;2023-07-29T13:30:49;24.30;1.40
18392;DHT22;9322;50.932;5.318;2023-07-29T13:33:15;24.30;1.40
18392;DHT22;9322;50.932;5.318;2023-07-29T13:35:41;24.00;1.40
18392;DHT22;9322;50.932;5.318;2023-07-29T13:38:06;23.80;1.40
18392;DHT22;9322;50.932;5.318;2023-07-29T13:40:32;23.50;1.40
18392;DHT22;9322;50.932;5.318;2023-07-29T13:42:58;23.30;1.40
18392;DHT22;9322;50.932;5.318;2023-07-29T13:45:23;23.10;1.40
18392;DHT22;9322;50.932;5.318;2023-07-29T13:47:49;22.90;1.40
18392;DHT22;9322;50.932;5.318;2023-07-29T13:50:16;22.90;1.40
18392;DHT22;9322;50.932;5.318;2023-07-29T13:52:42;23.20;1.40
18392;DHT22;9322;50.932;5.318;2023-07-29T13:55:07;23.60;1.40
18392;DHT22;9322;50.932;5.318;2023-07-29T13:57:33;23.70;1.40
18392;DHT22;9322;50.932;5.318;2023-07-29T13:59:59;24.20;1.40
18392;DHT22;9322;50.932;5.318;2023-07-29T14:02:25;24.50;1.40
18392;DHT22;9322;50.932;5.318;2023-07-29T14:04:54;24.70;1.40
18392;DHT22;9322;50.932;5.318;2023-07-29T14:07:19;24.70;1.40
18392;DHT22;9322;50.932;5.318;2023-07-29T14:09:45;24.90;1.40
18392;DHT22;9322;50.932;5.318;2023-07-29T14:12:10;24.80;1.40
18392;DHT22;9322;50.932;5.318;2023-07-29T14:14:39;24.70;1.40
18392;DHT22;9322;50.932;5.318;2023-07-29T14:17:04;24.50;1.40
18392;DHT22;9322;50.932;5.318;2023-07-29T14:19:31;24.60;1.40
18392;DHT22;9322;50.932;5.318;2023-07-29T14:21:57;24.70;1.40
18392;DHT22;9322;50.932;5.318;2023-07-29T14:24:22;24.40;1.40
18392;DHT22;9322;50.932;5.318;2023-07-29T14:26:48;24.60;1.40
18392;DHT22;9322;50.932;5.318;2023-07-29T14:29:13;24.70;1.40
18392;DHT22;9322;50.932;5.318;2023-07-29T14:31:39;24.80;1.40
18392;DHT22;9322;50.932;5.318;2023-07-29T14:34:05;24.80;1.40
18392;DHT22;9322;50.932;5.318;2023-07-29T14:36:30;25.00;1.40
18392;DHT22;9322;50.932;5.318;2023-07-29T14:38:56;25.30;1.40
18392;DHT22;9322;50.932;5.318;2023-07-29T14:41:22;25.40;1.40
18392;DHT22;9322;50.932;5.318;2023-07-29T14:43:47;25.30;1.40
18392;DHT22;9322;50.932;5.318;2023-07-29T14:46:13;25.20;1.40
18392;DHT22;9322;50.932;5.318;2023-07-29T14:48:39;25.20;1.40
18392;DHT22;9322;50.932;5.318;2023-07-29T14:51:04;25.20;1.40
18392;DHT22;9322;50.932;5.318;2023-07-29T14:53:30;25.40;1.40
18392;DHT22;9322;50.932;5.318;2023-07-29T14:55:55;25.10;1.40
18392;DHT22;9322;50.932;5.318;2023-07-29T14:58:21;24.70;1.40
18392;DHT22;9322;50.932;5.318;2023-07-29T15:00:47;24.50;1.40
18392;DHT22;9322;50.932;5.318;2023-07-29T15:03:12;24.50;1.40
18392;DHT22;9322;50.932;5.318;2023-07-29T15:05:38;24.30;1.40
18392;DHT22;9322;50.932;5.318;2023-07-29T15:08:06;24.10;1.40
18392;DHT22;9322;50.932;5.318;2023-07-29T15:10:31;24.30;1.40
18392;DHT22;9322;50.932;5.318;2023-07-29T15:12:57;24.10;1.40
18392;DHT22;9322;50.932;5.318;2023-07-29T15:15:22;23.90;1.40
18392;DHT22;9322;50.932;5.318;2023-07-29T15:17:48;24.00;1.40
18392;DHT22;9322;50.932;5.318;2023-07-29T15:20:14;24.00;1.40
18392;DHT22;9322;50.932;5.318;2023-07-29T15:22:39;24.00;1.40
18392;DHT22;9322;50.932;5.318;2023-07-29T15:25:08;24.20;1.40
18392;DHT22;9322;50.932;5.318;2023-07-29T15:27:34;23.90;1.40
18392;DHT22;9322;50.932;5.318;2023-07-29T15:30:00;24.10;1.40
18392;DHT22;9322;50.932;5.318;2023-07-29T15:32:25;24.30;1.40
18392;DHT22;9322;50.932;5.318;2023-07-29T15:34:51;24.10;1.40
18392;DHT22;9322;50.932;5.318;2023-07-29T15:37:17;24.10;1.40
18392;DHT22;9322;50.932;5.318;2023-07-29T15:39:43;24.20;1.40
18392;DHT22;9322;50.932;5.318;2023-07-29T15:42:08;24.30;1.40
18392;DHT22;9322;50.932;5.318;2023-07-29T15:44:34;24.40;1.40
18392;DHT22;9322;50.932;5.318;2023-07-29T15:47:00;24.60;1.40
18392;DHT22;9322;50.932;5.318;2023-07-29T15:49:25;24.90;1.40
18392;DHT22;9322;50.932;5.318;2023-07-29T15:51:51;25.20;1.40
18392;DHT22;9322;50.932;5.318;2023-07-29T15:54:17;25.00;1.40
18392;DHT22;9322;50.932;5.318;2023-07-29T15:56:42;24.90;1.40
18392;DHT22;9322;50.932;5.318;2023-07-29T15:59:08;24.80;1.40
18392;DHT22;9322;50.932;5.318;2023-07-29T16:01:34;24.60;1.40
18392;DHT22;9322;50.932;5.318;2023-07-29T16:04:00;24.30;1.40
18392;DHT22;9322;50.932;5.318;2023-07-29T16:06:26;24.20;1.40
18392;DHT22;9322;50.932;5.318;2023-07-29T16:08:55;24.20;1.40
18392;DHT22;9322;50.932;5.318;2023-07-29T16:11:21;24.20;1.40
18392;DHT22;9322;50.932;5.318;2023-07-29T16:13:46;24.30;1.40
18392;DHT22;9322;50.932;5.318;2023-07-29T16:16:12;24.10;1.40
18392;DHT22;9322;50.932;5.318;2023-07-29T16:18:38;23.90;1.40
18392;DHT22;9322;50.932;5.318;2023-07-29T16:21:04;23.90;1.40
18392;DHT22;9322;50.932;5.318;2023-07-29T16:23:32;24.00;1.40
18392;DHT22;9322;50.932;5.318;2023-07-29T16:25:59;23.70;1.40